Time;durP1;ratioP1;P1;durP2;ratioP2;P2;SDS_P1;SDS_P2;PMS_P1;PMS_P2;Temp;Humidity;BMP_temperature;BMP_pressure;BME280_temperature;BME280_humidity;BME280_pressure;Samples;Min_cycle;Max_cycle;Signal;HPM_P1;HPM_P2
2021/12/25 00:03:38;;;;;;;3.33;2.57;;;;;;;7.39;92.69;100297.19;10466132;28;20238;-84
2021/12/25 00:08:39;;;;;;;1.13;1.03;;;;;;;7.79;93.10;100360.91;10473272;28;20242;-84
2021/12/25 00:13:43;;;;;;;2.73;2.00;;;;;;;7.21;92.79;100270.03;10466798;28;20262;-83
2021/12/25 00:18:46;;;;;;;3.50;2.57;;;;;;;7.16;92.36;100278.31;10470569;28;20658;-83
2021/12/25 00:23:50;;;;;;;1.87;1.47;;;;;;;7.57;92.01;100350.88;10471565;28;20224;-84
2021/12/25 00:29:01;;;;;;;3.47;2.57;;;;;;;7.22;91.96;100308.94;10474199;28;20193;-83
2021/12/25 00:34:04;;;;;;;0.60;0.60;;;;;;;7.23;92.37;100310.63;10468815;28;20289;-83
2021/12/25 00:39:06;;;;;;;2.63;2.03;;;;;;;7.46;91.77;100350.72;10471053;28;20705;-83
2021/12/25 00:44:09;;;;;;;3.10;2.27;;;;;;;7.50;91.64;100362.88;10465101;28;20230;-84
2021/12/25 00:49:11;;;;;;;2.63;2.03;;;;;;;7.44;91.31;100361.50;10471802;28;20286;-84
2021/12/25 00:54:15;;;;;;;1.93;1.63;;;;;;;6.42;90.95;100214.16;10468973;28;20209;-82
2021/12/25 00:59:18;;;;;;;3.73;2.93;;;;;;;6.45;91.32;100244.06;10473576;28;20241;-83
2021/12/25 01:04:20;;;;;;;3.67;2.73;;;;;;;6.90;92.05;100308.41;10464761;28;20226;-83
2021/12/25 01:09:22;;;;;;;2.37;1.93;;;;;;;7.06;92.12;100340.09;10468163;28;20681;-83
2021/12/25 01:14:33;;;;;;;4.10;3.10;;;;;;;6.81;91.52;100328.41;10468059;28;20251;-85
2021/12/25 01:41:29;;;;;;;3.60;2.47;;;;;;;6.58;91.00;100336.03;10598976;28;20218;-84
2021/12/25 01:51:53;;;;;;;3.00;2.30;;;;;;;6.11;90.98;100283.34;10605868;28;20210;-83
2021/12/25 01:56:55;;;;;;;3.70;2.80;;;;;;;5.55;91.36;100206.34;10607671;28;20330;-85
2021/12/25 02:01:57;;;;;;;3.43;2.30;;;;;;;6.06;90.55;100296.84;10590287;27;20247;-82
2021/12/25 02:07:00;;;;;;;2.30;1.80;;;;;;;5.04;90.94;100127.34;10564820;28;20216;-84
2021/12/25 02:12:04;;;;;;;1.17;1.07;;;;;;;5.94;90.71;100297.59;10568709;28;20990;-84
2021/12/25 02:17:16;;;;;;;2.83;2.13;;;;;;;5.52;90.21;100241.84;10568998;28;20218;-84
2021/12/25 02:22:24;;;;;;;3.40;2.43;;;;;;;5.95;91.05;100325.78;10568120;28;20253;-84
2021/12/25 02:27:30;;;;;;;1.70;1.30;;;;;;;5.79;90.26;100302.03;10566917;28;20194;-85
2021/12/25 02:32:35;;;;;;;2.30;1.77;;;;;;;6.03;90.51;100344.78;10559530;28;20257;-84
2021/12/25 02:37:39;;;;;;;2.63;1.90;;;;;;;5.57;90.54;100278.63;10542557;28;20212;-85
2021/12/25 02:42:41;;;;;;;1.70;1.23;;;;;;;5.82;90.70;100309.78;10543126;28;20238;-84
2021/12/25 02:47:44;;;;;;;3.07;2.20;;;;;;;5.80;90.00;100348.78;10537845;28;20230;-83
2021/12/25 02:52:57;;;;;;;1.03;0.80;;;;;;;5.64;90.62;100330.28;10538284;28;20210;-84
2021/12/25 02:57:59;;;;;;;22.37;20.20;;;;;;;5.98;90.39;100384.81;10537460;28;20211;-83
2021/12/25 03:03:03;;;;;;;35.50;31.47;;;;;;;5.69;90.12;100353.84;10537641;28;20223;-84
2021/12/25 03:08:30;;;;;;;43.13;33.83;;;;;;;5.84;89.85;100398.03;10535499;28;20304;-83
2021/12/25 03:13:43;;;;;;;37.83;32.33;;;;;;;5.74;89.90;100397.69;10525086;28;20305;-84
2021/12/25 03:18:48;;;;;;;35.40;31.70;;;;;;;4.87;90.09;100266.78;10529673;28;21279;-84
2021/12/25 03:23:53;;;;;;;32.83;29.73;;;;;;;4.61;89.63;100233.88;10536642;28;20234;-84
2021/12/25 03:28:58;;;;;;;29.90;27.37;;;;;;;5.41;89.34;100389.91;10528682;28;20214;-83
2021/12/25 03:34:07;;;;;;;22.33;20.30;;;;;;;5.02;89.41;100331.22;10529790;28;20238;-84
2021/12/25 03:39:12;;;;;;;2.53;1.90;;;;;;;4.92;89.71;100327.41;10528988;28;20667;-84
2021/12/25 03:44:14;;;;;;;2.07;1.63;;;;;;;5.34;89.09;100412.41;10526354;28;20314;-84
2021/12/25 03:49:26;;;;;;;1.80;1.43;;;;;;;5.07;89.47;100382.09;10530443;28;20210;-83
2021/12/25 03:59:59;;;;;;;1.43;1.10;;;;;;;5.15;88.74;100423.16;10519858;28;20202;-83
2021/12/25 04:05:03;;;;;;;2.07;1.53;;;;;;;3.55;88.82;100178.09;10518946;28;20772;-83
2021/12/25 04:10:06;;;;;;;1.07;0.83;;;;;;;5.24;88.99;100451.78;10523851;28;20237;-83
2021/12/25 04:15:08;;;;;;;0.80;0.70;;;;;;;4.91;89.62;100404.22;10523060;28;20713;-84
2021/12/25 04:20:11;;;;;;;2.00;1.50;;;;;;;4.36;89.19;100331.38;10521559;28;20210;-84
2021/12/25 04:25:20;;;;;;;1.03;0.83;;;;;;;4.74;89.28;100395.41;10526189;28;20260;-84
2021/12/25 04:30:32;;;;;;;2.00;1.70;;;;;;;5.11;88.61;100471.94;10525560;28;20206;-83
2021/12/25 05:02:38;;;;;;;0.87;0.77;;;;;;;4.72;88.77;100471.34;10512379;28;20311;-83
2021/12/25 05:07:40;;;;;;;1.17;0.93;;;;;;;3.85;88.61;100345.50;10515486;28;20232;-82
2021/12/25 05:12:43;;;;;;;0.87;0.67;;;;;;;4.26;88.97;100428.84;10515704;28;20210;-83
2021/12/25 05:17:45;;;;;;;1.07;0.83;;;;;;;4.54;88.72;100482.91;10518015;28;20195;-84
2021/12/25 05:22:47;;;;;;;1.77;1.30;;;;;;;4.49;88.70;100489.28;10515923;28;20240;-83
2021/12/25 05:27:51;;;;;;;0.53;0.47;;;;;;;4.14;89.25;100430.31;10516047;28;20217;-83
2021/12/25 05:32:52;;;;;;;1.83;1.40;;;;;;;4.48;89.35;100498.16;10514422;28;20240;-83
2021/12/25 05:37:58;;;;;;;1.50;1.20;;;;;;;4.59;88.80;100531.13;10513450;28;20673;-83
2021/12/25 05:43:01;;;;;;;2.00;1.47;;;;;;;3.61;88.52;100371.34;10509249;28;20238;-83
2021/12/25 05:48:03;;;;;;;1.33;1.07;;;;;;;4.31;88.55;100499.97;10513003;28;20213;-83
2021/12/25 05:53:05;;;;;;;0.83;0.77;;;;;;;4.52;89.09;100535.00;10510616;28;20233;-83
2021/12/25 05:58:09;;;;;;;1.87;1.47;;;;;;;4.06;88.64;100482.72;10510142;28;20214;-83
2021/12/25 06:03:10;;;;;;;0.43;0.40;;;;;;;4.17;88.62;100508.59;10507817;28;20226;-83
2021/12/25 06:08:12;;;;;;;4.57;4.00;;;;;;;4.36;88.62;100551.66;10506077;28;20209;-84
2021/12/25 06:13:19;;;;;;;0.83;0.73;;;;;;;3.81;88.12;100486.56;10513757;28;20202;-83
2021/12/25 06:18:21;;;;;;;1.63;1.33;;;;;;;3.82;88.68;100501.47;10517505;28;20312;-84
2021/12/25 06:23:22;;;;;;;1.10;0.97;;;;;;;4.23;87.95;100555.84;10515962;28;20242;-83
2021/12/25 06:28:25;;;;;;;1.80;1.60;;;;;;;3.96;87.79;100532.53;10510792;28;20209;-84
2021/12/25 06:33:27;;;;;;;0.97;0.93;;;;;;;3.94;87.99;100549.34;10510633;28;20220;-83
2021/12/25 06:38:28;;;;;;;1.80;1.57;;;;;;;4.05;87.76;100571.69;10515082;28;20206;-83
2021/12/25 06:43:31;;;;;;;1.27;1.20;;;;;;;3.47;87.22;100503.22;10509002;28;20599;-83
2021/12/25 06:48:33;;;;;;;2.20;1.90;;;;;;;3.37;87.58;100491.34;10511432;28;20660;-84
2021/12/25 06:53:35;;;;;;;1.40;1.20;;;;;;;3.82;87.45;100567.50;10515614;28;20211;-83
2021/12/25 06:58:38;;;;;;;1.60;1.30;;;;;;;3.82;87.52;100577.22;10507146;28;20300;-83
2021/12/25 07:03:40;;;;;;;1.40;1.17;;;;;;;3.37;86.57;100529.19;10512598;28;20239;-83
2021/12/25 07:08:41;;;;;;;2.27;1.97;;;;;;;3.77;87.30;100595.97;10512713;28;20217;-83
2021/12/25 07:13:46;;;;;;;1.03;0.97;;;;;;;3.14;87.24;100527.59;10504664;28;20671;-83
2021/12/25 07:18:47;;;;;;;1.70;1.40;;;;;;;3.72;86.69;100602.38;10509376;28;20203;-83
2021/12/25 07:23:49;;;;;;;1.40;1.20;;;;;;;3.00;86.88;100501.00;10516257;28;20236;-84
2021/12/25 07:28:52;;;;;;;1.33;1.13;;;;;;;3.34;87.15;100563.63;10512811;28;20258;-83
2021/12/25 07:33:54;;;;;;;1.83;1.53;;;;;;;3.18;85.61;100560.81;10510436;28;20228;-84
2021/12/25 07:38:56;;;;;;;1.80;1.50;;;;;;;3.08;85.81;100570.09;10512371;28;20213;-84
2021/12/25 07:44:00;;;;;;;2.63;2.13;;;;;;;3.26;84.96;100623.84;10514831;28;20911;-83
2021/12/25 07:49:03;;;;;;;1.70;1.40;;;;;;;3.35;85.57;100651.59;10513450;28;21976;-83
2021/12/25 07:54:05;;;;;;;2.50;2.13;;;;;;;2.30;84.93;100509.34;10512952;28;20207;-83
2021/12/25 07:59:08;;;;;;;24.53;22.20;;;;;;;3.19;84.42;100660.19;10514234;28;20206;-82
2021/12/25 08:04:10;;;;;;;31.20;28.07;;;;;;;3.12;83.96;100664.03;10511599;28;20209;-83
2021/12/25 08:09:12;;;;;;;12.97;11.73;;;;;;;2.95;84.38;100643.66;10513813;28;20211;-82
2021/12/25 08:14:15;;;;;;;9.23;8.30;;;;;;;1.99;83.86;100498.38;10512369;28;20209;-83
2021/12/25 08:19:17;;;;;;;1.33;1.23;;;;;;;2.65;84.11;100620.28;10516266;28;20222;-82
2021/12/25 08:24:20;;;;;;;3.10;2.43;;;;;;;2.77;83.74;100657.63;10510779;28;20285;-83
2021/12/25 08:29:23;;;;;;;9.47;8.50;;;;;;;2.84;83.34;100685.44;10514835;28;20214;-83
2021/12/25 08:34:25;;;;;;;7.50;6.73;;;;;;;2.77;83.25;100681.34;10511490;28;20227;-82
2021/12/25 08:39:26;;;;;;;4.63;3.40;;;;;;;1.55;82.73;100517.72;10508733;28;20561;-82
2021/12/25 08:44:36;;;;;;;2.40;1.73;;;;;;;2.69;82.85;100706.28;10511996;28;20697;-81
2021/12/25 08:49:42;;;;;;;4.63;3.23;;;;;;;2.30;83.16;100645.50;10507894;28;20596;-82
2021/12/25 08:54:45;;;;;;;2.47;1.87;;;;;;;2.46;82.66;100699.28;10509734;28;20221;-82
2021/12/25 08:59:51;;;;;;;2.30;1.60;;;;;;;2.57;83.31;100732.28;10510363;28;20211;-83
2021/12/25 09:04:53;;;;;;;3.73;2.77;;;;;;;0.95;82.60;100484.03;10505404;28;20728;-82
2021/12/25 09:09:54;;;;;;;1.97;1.57;;;;;;;2.08;82.60;100672.69;10505539;28;21194;-82
2021/12/25 09:14:57;;;;;;;3.60;2.60;;;;;;;2.32;82.57;100728.84;10506643;28;20198;-82
2021/12/25 09:19:59;;;;;;;2.60;2.03;;;;;;;2.36;82.01;100731.38;10504752;28;20209;-80
2021/12/25 09:25:01;;;;;;;4.60;3.27;;;;;;;2.28;82.18;100727.25;10503111;28;20353;-81
2021/12/25 09:30:05;;;;;;;1.70;1.33;;;;;;;2.21;82.09;100724.91;10508151;28;20205;-82
2021/12/25 09:35:08;;;;;;;2.43;1.67;;;;;;;2.15;81.35;100726.00;10508974;28;20226;-81
2021/12/25 09:40:11;;;;;;;3.77;2.67;;;;;;;1.98;81.81;100717.88;10501176;28;20202;-82
2021/12/25 09:45:15;;;;;;;2.90;2.03;;;;;;;1.97;81.80;100724.94;10510853;28;20296;-82
2021/12/25 09:50:17;;;;;;;3.07;2.43;;;;;;;1.49;81.06;100668.78;10513739;28;20218;-82
2021/12/25 09:55:19;;;;;;;4.03;2.97;;;;;;;1.73;81.09;100724.94;10503302;28;20229;-81
2021/12/25 10:00:24;;;;;;;2.83;2.10;;;;;;;1.93;81.11;100776.84;10509877;28;20202;-81
2021/12/25 10:05:28;;;;;;;1.23;1.00;;;;;;;1.78;81.68;100766.03;10509864;28;20230;-81
2021/12/25 10:10:41;;;;;;;2.80;2.07;;;;;;;1.85;81.41;100770.16;10507478;28;20206;-81
2021/12/25 10:15:44;;;;;;;4.43;2.97;;;;;;;0.20;81.04;100494.63;10513356;28;20207;-81
2021/12/25 10:20:46;;;;;;;1.53;1.23;;;;;;;1.87;81.34;100774.44;10503778;28;20210;-82
2021/12/25 10:25:50;;;;;;;2.30;1.67;;;;;;;1.86;81.24;100771.88;10511491;28;20235;-81
2021/12/25 10:30:58;;;;;;;2.00;1.60;;;;;;;1.83;80.82;100774.59;10514604;28;20230;-82
2021/12/25 10:36:03;;;;;;;2.73;2.07;;;;;;;1.81;80.83;100786.97;10511952;28;20230;-82
2021/12/25 10:41:18;;;;;;;2.33;1.80;;;;;;;1.36;81.44;100683.31;10507613;28;20307;-81
2021/12/25 10:46:21;;;;;;;2.73;1.97;;;;;;;1.85;81.34;100744.69;10508736;28;20357;-82
2021/12/25 10:51:26;;;;;;;3.37;2.57;;;;;;;1.96;81.80;100749.56;10510019;28;20211;-81
2021/12/25 10:56:36;;;;;;;1.50;1.27;;;;;;;2.10;81.16;100773.59;10500597;28;20211;-82
2021/12/25 11:01:42;;;;;;;3.10;2.23;;;;;;;1.27;79.93;100629.25;10507876;28;20223;-81
2021/12/25 11:06:43;;;;;;;2.17;1.63;;;;;;;1.98;80.27;100737.19;10509460;28;20265;-81
2021/12/25 11:12:05;;;;;;;1.33;1.03;;;;;;;2.11;80.57;100750.72;10505607;28;21042;-83
2021/12/25 11:17:22;;;;;;;2.43;1.87;;;;;;;2.17;80.15;100749.63;10514699;28;20726;-82
2021/12/25 11:22:25;;;;;;;1.13;0.90;;;;;;;2.28;80.29;100742.19;10506508;28;20242;-82
2021/12/25 11:27:27;;;;;;;0.67;0.57;;;;;;;1.17;80.05;100534.06;10502108;28;20702;-82
2021/12/25 11:32:31;;;;;;;2.50;2.03;;;;;;;2.19;78.64;100721.47;10503611;28;20353;-81
2021/12/25 11:37:32;;;;;;;1.87;1.60;;;;;;;2.26;77.87;100720.31;10509936;28;20261;-82
2021/12/25 11:42:34;;;;;;;3.43;2.77;;;;;;;2.55;79.24;100756.06;10505511;28;20324;-82
2021/12/25 11:47:39;;;;;;;0.87;0.77;;;;;;;2.39;79.12;100689.91;10506280;28;20623;-81
2021/12/25 11:52:46;;;;;;;2.30;1.90;;;;;;;2.93;79.82;100725.47;10502962;28;20202;-82
2021/12/25 11:57:55;;;;;;;1.93;1.73;;;;;;;3.34;78.94;100737.84;10506944;28;21992;-83
2021/12/25 12:03:02;;;;;;;2.97;2.72;;;;;;;2.63;77.18;100585.22;10520041;28;20225;-83
2021/12/25 12:08:08;;;;;;;0.60;0.60;;;;;;;3.53;78.18;100698.28;10527604;28;20229;-83
2021/12/25 12:13:17;;;;;;;;;;;;;;;4.03;76.37;100741.81;10525157;28;20230;-86
2021/12/25 12:18:38;;;;;;;4.60;3.22;;;;;;;4.30;77.58;100726.47;10516262;28;21267;-83
2021/12/25 12:24:10;;;;;;;1.17;0.97;;;;;;;4.26;74.48;100690.53;10525384;28;20630;-82
2021/12/25 12:29:12;;;;;;;2.60;2.27;;;;;;;4.36;73.31;100720.03;10529404;28;20321;-83
2021/12/25 12:34:36;;;;;;;2.43;2.17;;;;;;;4.17;71.94;100693.59;10520885;28;20242;-83
2021/12/25 12:39:39;;;;;;;2.97;2.27;;;;;;;3.30;70.62;100573.47;10515915;28;20218;-83
2021/12/25 12:44:41;;;;;;;1.90;1.70;;;;;;;3.28;70.05;100596.44;10505306;28;20254;-82
2021/12/25 12:49:58;;;;;;;0.83;0.77;;;;;;;3.72;69.72;100679.81;10506190;28;20209;-83
2021/12/25 12:55:03;;;;;;;0.37;0.37;;;;;;;3.58;70.02;100683.09;10502726;28;20212;-83
2021/12/25 13:00:13;;;;;;;1.70;1.50;;;;;;;3.64;69.13;100695.19;10498032;28;20216;-82
2021/12/25 13:05:20;;;;;;;2.57;2.33;;;;;;;3.47;70.02;100667.75;10497067;28;20245;-83
2021/12/25 13:10:30;;;;;;;1.43;1.27;;;;;;;3.72;70.42;100700.09;10506815;28;20197;-82
2021/12/25 13:15:34;;;;;;;1.37;1.27;;;;;;;2.82;68.70;100545.72;10500601;28;20220;-82
2021/12/25 13:20:40;;;;;;;1.10;1.00;;;;;;;3.25;69.64;100635.31;10501957;28;20213;-82
2021/12/25 13:25:50;;;;;;;1.70;1.53;;;;;;;3.54;69.97;100676.22;10506619;28;20633;-82
2021/12/25 13:30:55;;;;;;;1.37;1.27;;;;;;;3.65;69.91;100683.66;10500164;28;20225;-82
2021/12/25 13:36:05;;;;;;;1.67;1.55;;;;;;;3.84;69.76;100707.44;10500064;28;20245;-83
2021/12/25 13:41:07;;;;;;;1.03;0.93;;;;;;;3.18;69.91;100610.13;10504055;28;20209;-83
2021/12/25 13:46:09;;;;;;;1.50;1.40;;;;;;;3.68;69.53;100672.97;10502667;28;20232;-83
2021/12/25 13:51:12;;;;;;;1.92;1.70;;;;;;;2.54;69.19;100482.81;10499182;28;20218;-82
2021/12/25 13:56:14;;;;;;;1.13;1.05;;;;;;;2.64;67.90;100534.22;10499470;28;20220;-83
2021/12/25 14:01:17;;;;;;;0.30;0.30;;;;;;;3.67;68.17;100710.84;10496222;28;20217;-82
2021/12/25 14:06:23;;;;;;;1.95;1.80;;;;;;;3.19;67.10;100652.28;10496571;28;20233;-82
2021/12/25 14:11:27;;;;;;;1.90;1.75;;;;;;;3.18;68.28;100660.25;10502939;28;20220;-82
2021/12/25 14:16:29;;;;;;;1.55;1.45;;;;;;;3.42;68.37;100719.03;10501571;28;20217;-83
2021/12/25 14:21:32;;;;;;;1.20;1.10;;;;;;;3.39;68.52;100714.75;10498642;28;20217;-82
2021/12/25 14:26:34;;;;;;;1.53;1.43;;;;;;;3.15;67.98;100687.66;10498896;28;20229;-83
2021/12/25 14:31:41;;;;;;;1.17;1.10;;;;;;;2.49;67.15;100628.00;10507549;28;20227;-83
2021/12/25 14:36:46;;;;;;;1.13;1.08;;;;;;;3.16;67.65;100725.44;10509796;28;20235;-83
2021/12/25 14:41:50;;;;;;;1.70;1.60;;;;;;;3.06;67.54;100727.63;10508257;28;20216;-83
2021/12/25 14:47:09;;;;;;;0.80;0.80;;;;;;;2.55;67.46;100661.16;10515454;28;20223;-83
2021/12/25 14:52:13;;;;;;;2.17;1.98;;;;;;;2.89;67.42;100747.63;10513904;28;20212;-83
2021/12/25 14:57:23;;;;;;;1.23;1.13;;;;;;;2.75;67.46;100738.56;10512669;28;20224;-82
2021/12/25 15:02:26;;;;;;;0.50;0.50;;;;;;;2.88;67.06;100768.78;10513054;28;20228;-83
2021/12/25 15:07:31;;;;;;;1.35;1.25;;;;;;;2.78;66.92;100756.91;10513743;28;20251;-84
2021/12/25 15:12:34;;;;;;;0.20;0.20;;;;;;;2.68;66.21;100769.63;10516838;28;20301;-84
2021/12/25 15:17:38;;;;;;;1.57;1.47;;;;;;;2.26;67.01;100710.66;10518309;28;20211;-83
2021/12/25 15:22:42;;;;;;;0.93;0.88;;;;;;;2.13;66.17;100715.53;10514511;28;20589;-83
2021/12/25 15:27:50;;;;;;;1.45;1.35;;;;;;;2.36;66.57;100765.63;10520941;28;20319;-83
2021/12/25 15:32:54;;;;;;;1.35;1.25;;;;;;;2.36;66.40;100782.28;10511497;28;20233;-83
2021/12/25 15:37:59;;;;;;;1.50;1.40;;;;;;;0.02;66.81;100406.88;10512292;28;20198;-83
2021/12/25 15:43:00;;;;;;;0.35;0.35;;;;;;;1.09;66.54;100593.97;10517925;28;20222;-83
2021/12/25 15:48:04;;;;;;;1.50;1.40;;;;;;;2.29;67.22;100797.47;10515127;28;20231;-83
2021/12/25 15:53:08;;;;;;;1.03;0.93;;;;;;;1.47;66.80;100661.84;10511084;28;20215;-84
2021/12/25 15:58:13;;;;;;;1.77;1.63;;;;;;;2.03;66.93;100781.78;10511521;28;20226;-83
2021/12/25 16:03:17;;;;;;;0.50;0.50;;;;;;;2.12;66.76;100787.56;10507848;28;20222;-83
2021/12/25 16:08:20;;;;;;;1.35;1.25;;;;;;;2.11;67.22;100788.50;10508778;28;20209;-83
2021/12/25 16:13:22;;;;;;;0.47;0.47;;;;;;;2.07;66.49;100786.88;10512299;28;20261;-83
2021/12/25 16:18:25;;;;;;;1.35;1.25;;;;;;;1.90;66.20;100778.72;10510664;28;20205;-82
2021/12/25 16:23:28;;;;;;;0.70;0.70;;;;;;;1.62;66.28;100748.16;10507081;28;20574;-83
2021/12/25 16:28:31;;;;;;;1.53;1.43;;;;;;;1.69;66.92;100775.13;10508007;28;20203;-82
2021/12/25 16:33:32;;;;;;;1.55;1.45;;;;;;;1.44;67.02;100728.63;10504973;28;20992;-82
2021/12/25 16:38:36;;;;;;;1.50;1.40;;;;;;;0.63;66.47;100592.13;10507306;28;20202;-83
2021/12/25 16:43:39;;;;;;;0.97;0.90;;;;;;;1.79;66.29;100794.94;10508624;28;20260;-83
2021/12/25 16:48:43;;;;;;;0.67;0.67;;;;;;;1.35;66.32;100740.31;10507528;28;20208;-83
2021/12/25 16:53:46;;;;;;;2.13;1.93;;;;;;;1.25;66.27;100738.09;10502839;28;20213;-83
2021/12/25 16:58:47;;;;;;;0.67;0.63;;;;;;;1.11;66.15;100738.53;10501646;28;20284;-82
2021/12/25 17:03:49;;;;;;;1.13;1.03;;;;;;;1.44;66.28;100785.66;10503239;28;20245;-82
2021/12/25 17:08:53;;;;;;;1.60;1.40;;;;;;;1.13;65.96;100745.50;10506956;28;20210;-82
2021/12/25 17:13:54;;;;;;;1.10;1.00;;;;;;;1.17;66.08;100752.34;10502706;28;20661;-82
2021/12/25 17:18:56;;;;;;;1.00;0.93;;;;;;;1.23;64.70;100779.38;10503755;28;21954;-82
2021/12/25 17:24:00;;;;;;;1.03;0.93;;;;;;;1.19;66.19;100783.00;10508490;28;20322;-82
2021/12/25 17:29:02;;;;;;;1.60;1.50;;;;;;;1.12;65.59;100782.34;10501775;28;20206;-82
2021/12/25 17:34:03;;;;;;;2.73;2.37;;;;;;;1.02;64.90;100781.81;10503038;28;20250;-83
2021/12/25 17:39:06;;;;;;;1.53;1.43;;;;;;;0.97;65.63;100796.88;10506518;28;20210;-82
2021/12/25 17:44:08;;;;;;;1.40;1.30;;;;;;;0.97;65.79;100795.09;10503665;28;20230;-82
2021/12/25 17:49:10;;;;;;;1.13;1.07;;;;;;;0.96;66.01;100805.66;10506986;28;20202;-82
2021/12/25 17:54:13;;;;;;;2.73;2.47;;;;;;;0.94;65.44;100805.72;10505132;28;20210;-83
2021/12/25 17:59:15;;;;;;;0.93;0.90;;;;;;;0.92;65.66;100810.19;10500363;28;20217;-82
2021/12/25 18:04:17;;;;;;;2.00;1.80;;;;;;;0.51;65.12;100758.91;10505204;28;20226;-82
2021/12/25 18:09:20;;;;;;;0.67;0.67;;;;;;;0.78;64.78;100829.00;10514193;28;20218;-82
2021/12/25 18:14:21;;;;;;;0.50;0.50;;;;;;;0.78;65.05;100818.47;10514164;28;20206;-82
2021/12/25 18:19:23;;;;;;;1.20;1.10;;;;;;;-0.57;64.78;100590.72;10511864;28;20211;-82
2021/12/25 18:24:26;;;;;;;0.17;0.17;;;;;;;0.27;64.77;100735.13;10516786;28;20241;-82
2021/12/25 18:29:28;;;;;;;1.20;1.10;;;;;;;0.70;64.52;100819.66;10514917;28;20615;-82
2021/12/25 18:34:30;;;;;;;0.67;0.67;;;;;;;0.68;64.58;100826.69;10514397;28;21064;-82
2021/12/25 18:39:33;;;;;;;1.57;1.47;;;;;;;0.36;64.76;100797.03;10516297;28;20218;-82
2021/12/25 18:44:34;;;;;;;0.33;0.33;;;;;;;0.14;64.98;100760.91;10513653;28;20233;-82
2021/12/25 18:49:37;;;;;;;1.17;1.07;;;;;;;0.31;64.43;100785.81;10516155;28;20217;-82
2021/12/25 18:54:40;;;;;;;1.20;1.10;;;;;;;0.57;64.51;100829.69;10517096;28;20218;-82
2021/12/25 18:59:43;;;;;;;1.70;1.60;;;;;;;0.27;63.68;100781.56;10518575;28;20219;-82
2021/12/25 19:04:45;;;;;;;0.47;0.47;;;;;;;0.10;64.40;100751.41;10516166;28;20272;-82
2021/12/25 19:09:48;;;;;;;1.58;1.48;;;;;;;0.52;64.29;100824.53;10514256;28;20205;-82
2021/12/25 19:14:50;;;;;;;0.53;0.53;;;;;;;0.25;64.44;100784.22;10520029;28;20198;-82
2021/12/25 19:19:52;;;;;;;1.60;1.40;;;;;;;0.51;64.20;100821.94;10518110;28;20208;-83
2021/12/25 19:24:55;;;;;;;0.60;0.60;;;;;;;0.46;64.12;100808.97;10514409;28;20229;-82
2021/12/25 19:29:56;;;;;;;1.20;1.10;;;;;;;0.19;64.13;100759.00;10515691;28;20242;-83
2021/12/25 19:34:58;;;;;;;0.73;0.67;;;;;;;0.37;64.02;100794.34;10517199;28;20244;-82
2021/12/25 19:40:01;;;;;;;1.00;0.90;;;;;;;0.20;63.90;100770.34;10517851;28;20234;-83
2021/12/25 19:45:07;;;;;;;0.93;0.93;;;;;;;-1.78;64.29;100443.94;10518182;28;20221;-82
2021/12/25 19:50:14;;;;;;;0.70;0.70;;;;;;;0.21;64.54;100756.34;10515245;28;20235;-82
2021/12/25 19:55:19;;;;;;;1.45;1.35;;;;;;;0.33;64.18;100769.06;10514881;28;20740;-82
2021/12/25 20:00:29;;;;;;;1.70;1.60;;;;;;;-0.02;63.96;100733.38;10505311;28;20233;-83
2021/12/25 20:05:32;;;;;;;0.25;0.25;;;;;;;0.08;63.85;100753.22;10508901;28;20254;-82
2021/12/25 20:10:36;;;;;;;1.17;1.08;;;;;;;-0.02;63.82;100754.38;10510781;28;20213;-82
2021/12/25 20:15:37;;;;;;;1.67;1.53;;;;;;;-1.06;63.44;100583.34;10509251;28;20208;-83
2021/12/25 20:20:39;;;;;;;1.07;0.97;;;;;;;0.27;63.93;100786.81;10514805;28;20216;-83
2021/12/25 20:25:43;;;;;;;1.00;0.95;;;;;;;0.04;63.75;100745.47;10509653;28;20227;-83
2021/12/25 20:30:45;;;;;;;1.30;1.20;;;;;;;-0.03;64.11;100743.03;10506553;28;20221;-83
2021/12/25 20:35:48;;;;;;;1.20;1.10;;;;;;;0.13;63.69;100780.19;10513646;28;20277;-82
2021/12/25 20:40:51;;;;;;;0.50;0.50;;;;;;;-0.23;64.20;100716.50;10510207;28;20202;-82
2021/12/25 20:45:53;;;;;;;;;;;;;;;0.26;64.27;100783.28;10512591;28;20236;-82
2021/12/25 20:50:56;;;;;;;;;;;;;;;0.28;64.12;100778.00;10507106;28;19923;-82
2021/12/25 20:55:59;;;;;;;;;;;;;;;0.29;63.86;100777.97;10496153;28;19920;-82
2021/12/25 21:01:01;;;;;;;;;;;;;;;0.28;63.65;100778.84;10500012;28;19926;-82
2021/12/25 21:06:03;;;;;;;;;;;;;;;0.31;64.02;100776.16;10499890;28;19959;-82
2021/12/25 21:11:07;;;;;;;;;;;;;;;0.35;64.30;100769.03;10500742;28;19924;-82
2021/12/25 21:16:08;;;;;;;;;;;;;;;0.36;63.88;100768.16;10500340;28;19924;-82
2021/12/25 21:21:09;;;;;;;;;;;;;;;0.35;64.22;100767.25;10500936;28;20360;-81
2021/12/25 21:26:13;;;;;;;;;;;;;;;0.33;63.66;100758.56;10497668;28;19985;-83
2021/12/25 21:31:15;;;;;;;;;;;;;;;0.39;63.91;100758.38;10498453;28;20011;-82
2021/12/25 21:36:16;;;;;;;;;;;;;;;0.41;63.83;100760.09;10495612;28;20868;-81
2021/12/25 21:41:19;;;;;;;;;;;;;;;0.42;63.38;100759.22;10505415;28;19923;-83
2021/12/25 21:46:21;;;;;;;;;;;;;;;0.42;63.55;100748.72;10506253;28;19924;-82
2021/12/25 21:51:22;;;;;;;;;;;;;;;0.40;63.48;100740.88;10506076;28;19931;-82
2021/12/25 21:56:26;;;;;;;;;;;;;;;0.41;64.07;100736.47;10506340;28;19935;-82
2021/12/25 22:01:28;;;;;;;;;;;;;;;0.46;63.85;100738.03;10506281;28;19943;-82
2021/12/25 22:06:30;;;;;;;1.60;1.45;;;;;;;0.48;63.64;100738.00;10503140;28;20456;-82
2021/12/25 22:11:35;;;;;;;1.00;0.77;;;;;;;0.08;64.06;100668.34;10507934;28;20615;-82
2021/12/25 22:16:37;;;;;;;2.30;2.10;;;;;;;-0.63;63.33;100571.63;10506860;28;20236;-82
2021/12/25 22:21:39;;;;;;;1.60;1.50;;;;;;;0.39;63.88;100736.50;10517141;28;20217;-82
2021/12/25 22:26:42;;;;;;;0.65;0.50;;;;;;;0.14;64.00;100686.53;10512450;28;20234;-82
2021/12/25 22:31:44;;;;;;;1.98;1.83;;;;;;;0.19;64.12;100688.09;10511147;28;20241;-82
2021/12/25 22:36:45;;;;;;;;;;;;;;;0.38;64.20;100721.66;10516702;28;21127;-82
2021/12/25 22:41:48;;;;;;;;;;;;;;;0.39;64.19;100726.00;10504273;28;19931;-83
2021/12/25 22:46:50;;;;;;;;;;;;;;;0.41;64.07;100728.59;10505317;28;20387;-83
2021/12/25 22:51:52;;;;;;;;;;;;;;;0.41;64.32;100731.22;10505621;28;19947;-82
2021/12/25 22:56:54;;;;;;;;;;;;;;;0.45;64.17;100719.69;10506859;28;19928;-82
2021/12/25 23:01:56;;;;;;;;;;;;;;;0.47;64.01;100724.00;10507353;28;19932;-83
2021/12/25 23:06:58;;;;;;;;;;;;;;;0.46;64.07;100718.81;10504228;28;19943;-82
2021/12/25 23:12:01;;;;;;;;;;;;;;;0.48;64.22;100725.72;10495053;28;19924;-83
2021/12/25 23:17:02;;;;;;;;;;;;;;;0.51;64.69;100723.00;10503441;28;19931;-82
2021/12/25 23:22:04;;;;;;;;;;;;;;;0.53;64.32;100709.81;10506431;28;19935;-81
2021/12/25 23:27:07;;;;;;;;;;;;;;;0.52;64.15;100702.84;10503299;28;19928;-82
2021/12/25 23:32:09;;;;;;;;;;;;;;;0.54;64.36;100690.50;10505660;28;20292;-82
2021/12/25 23:37:10;;;;;;;;;;;;;;;0.55;63.77;100676.47;10501317;28;19928;-82
2021/12/25 23:42:13;;;;;;;;;;;;;;;0.49;63.65;100667.03;10506145;28;20295;-83
2021/12/25 23:47:15;;;;;;;;;;;;;;;0.46;63.71;100663.63;10502844;28;19923;-81
2021/12/25 23:52:18;;;;;;;;;;;;;;;0.43;63.02;100672.44;10494781;28;19928;-82
2021/12/25 23:57:21;;;;;;;;;;;;;;;0.41;63.68;100663.75;10499706;28;19924;-82
